Time;durP1;ratioP1;P1;durP2;ratioP2;P2;SDS_P1;SDS_P2;PMS_P1;PMS_P2;Temp;Humidity;BMP_temperature;BMP_pressure;BME280_temperature;BME280_humidity;BME280_pressure;Samples;Min_cycle;Max_cycle;Signal;HPM_P1;HPM_P2
2023/09/07 00:00:52;;;;;;;7.10;4.70;;;;;;;21.67;100.00;100273.25;104773;1255;59699;-60
2023/09/07 00:03:19;;;;;;;5.20;4.70;;;;;;;21.62;100.00;100273.92;104338;1257;73232;-59
2023/09/07 00:05:47;;;;;;;7.30;4.90;;;;;;;21.56;100.00;100276.95;104265;1251;69998;-60
2023/09/07 00:08:15;;;;;;;5.10;4.60;;;;;;;21.46;100.00;100281.42;104311;1264;72411;-60
2023/09/07 00:10:43;;;;;;;;;;;;;;;21.38;100.00;100280.40;104354;1253;60675;-60
2023/09/07 00:13:10;;;;;;;4.90;4.40;;;;;;;21.29;100.00;100281.67;104452;1254;60698;-59
2023/09/07 00:15:38;;;;;;;4.60;4.00;;;;;;;21.26;100.00;100283.85;104365;1257;72920;-59
2023/09/07 00:18:06;;;;;;;5.80;5.20;;;;;;;21.19;100.00;100280.61;104381;1270;69729;-60
2023/09/07 00:20:37;;;;;;;7.00;5.50;;;;;;;21.15;100.00;100280.39;104459;1253;72506;-59
2023/09/07 00:23:05;;;;;;;;;;;;;;;21.15;100.00;100281.11;104310;1253;60815;-59
2023/09/07 00:25:32;;;;;;;5.10;4.60;;;;;;;21.08;100.00;100282.40;104339;1256;59429;-59
2023/09/07 00:28:00;;;;;;;;;;;;;;;21.02;100.00;100283.56;104549;1257;73719;-59
2023/09/07 00:30:28;;;;;;;;;;;;;;;20.92;100.00;100285.71;104326;1257;68455;-60
2023/09/07 00:32:56;;;;;;;5.80;4.20;;;;;;;20.84;100.00;100289.19;104230;1275;71475;-61
2023/09/07 00:35:31;;;;;;;7.50;4.40;;;;;;;20.77;100.00;100295.80;104237;1257;61878;-60
2023/09/07 00:37:58;;;;;;;5.20;4.70;;;;;;;20.76;100.00;100296.73;104442;1256;59797;-60
2023/09/07 00:40:26;;;;;;;5.70;5.20;;;;;;;20.72;100.00;100301.63;104364;1257;72224;-61
2023/09/07 00:42:55;;;;;;;6.20;4.50;;;;;;;20.72;100.00;100304.15;104287;1253;69520;-61
2023/09/07 00:45:23;;;;;;;;;;;;;;;20.69;100.00;100312.79;104397;1271;72383;-60
2023/09/07 00:47:51;;;;;;;5.60;4.60;;;;;;;20.64;100.00;100310.50;104329;1256;61342;-60
2023/09/07 00:50:19;;;;;;;6.10;4.80;;;;;;;20.58;100.00;100309.42;104406;1255;60741;-59
2023/09/07 00:52:47;;;;;;;5.80;5.20;;;;;;;20.58;100.00;100313.38;108419;1252;74092;-60
2023/09/07 00:55:15;;;;;;;5.90;5.10;;;;;;;20.55;100.00;100311.05;104656;1259;69225;-59
2023/09/07 00:57:42;;;;;;;;;;;;;;;20.51;100.00;100311.59;108202;1252;72271;-59
2023/09/07 01:00:11;;;;;;;;;;;;;;;20.46;100.00;100314.27;108277;1254;61800;-60
2023/09/07 01:02:39;;;;;;;6.30;4.00;;;;;;;20.43;100.00;100313.02;107561;1254;59867;-59
2023/09/07 01:05:07;;;;;;;4.80;4.40;;;;;;;20.34;100.00;100312.83;104271;1260;73357;-59
2023/09/07 01:07:43;;;;;;;5.10;4.60;;;;;;;20.30;100.00;100309.86;104299;1260;69339;-59
2023/09/07 01:10:11;;;;;;;6.00;4.30;;;;;;;20.33;100.00;100308.28;104237;1276;72313;-59
2023/09/07 01:12:40;;;;;;;10.50;4.80;;;;;;;20.28;100.00;100307.20;104397;1257;61751;-59
2023/09/07 01:15:08;;;;;;;8.40;4.90;;;;;;;20.25;100.00;100309.00;104361;1259;59766;-60
2023/09/07 01:17:36;;;;;;;8.20;4.50;;;;;;;20.23;100.00;100311.27;104487;1253;71899;-59
2023/09/07 01:20:09;;;;;;;6.80;4.80;;;;;;;20.19;100.00;100313.49;104417;1254;70373;-59
2023/09/07 01:22:37;;;;;;;4.90;4.40;;;;;;;20.20;100.00;100317.00;104255;1255;72487;-59
2023/09/07 01:25:06;;;;;;;7.50;4.90;;;;;;;20.17;100.00;100314.20;104299;1253;61386;-59
2023/09/07 01:27:34;;;;;;;6.00;4.70;;;;;;;20.15;100.00;100314.89;104302;1257;60634;-58
2023/09/07 01:30:03;;;;;;;;;;;;;;;20.13;100.00;100321.45;104371;1259;73368;-59
2023/09/07 01:32:31;;;;;;;5.80;4.30;;;;;;;20.05;100.00;100321.45;105185;1256;70272;-60
2023/09/07 01:34:58;;;;;;;4.60;4.20;;;;;;;20.04;100.00;100324.20;104423;1275;72402;-59
2023/09/07 01:37:27;;;;;;;7.10;4.40;;;;;;;20.01;100.00;100326.90;108315;1253;61362;-60
2023/09/07 01:39:54;;;;;;;4.70;4.30;;;;;;;19.95;100.00;100320.91;104963;1254;59736;-60
2023/09/07 01:42:22;;;;;;;5.40;4.60;;;;;;;20.01;100.00;100332.95;104347;1253;72845;-60
2023/09/07 01:44:50;;;;;;;5.20;4.40;;;;;;;19.97;100.00;100331.98;104480;1257;69671;-60
2023/09/07 01:47:18;;;;;;;4.90;4.40;;;;;;;19.97;100.00;100336.77;104190;1275;72581;-59
2023/09/07 01:49:46;;;;;;;4.40;4.00;;;;;;;19.99;100.00;100333.96;104345;1254;61470;-60
2023/09/07 01:52:14;;;;;;;;;;;;;;;19.97;100.00;100329.84;108244;1252;59679;-61
2023/09/07 01:54:41;;;;;;;4.10;3.80;;;;;;;20.02;100.00;100333.79;106546;1256;73296;-60
2023/09/07 01:57:11;;;;;;;4.80;4.30;;;;;;;19.97;100.00;100333.05;104586;1257;68558;-60
2023/09/07 01:59:38;;;;;;;;;;;;;;;19.98;100.00;100334.76;104450;1275;72951;-60
2023/09/07 02:02:06;;;;;;;;;;;;;;;19.99;100.00;100340.91;104581;1259;61463;-60
2023/09/07 02:04:34;;;;;;;4.70;3.50;;;;;;;19.89;100.00;100330.80;104808;1256;59581;-62
2023/09/07 02:07:04;;;;;;;4.80;3.50;;;;;;;19.93;100.00;100342.77;104541;1257;73691;-59
2023/09/07 02:09:31;;;;;;;6.60;4.10;;;;;;;19.96;100.00;100341.47;104300;1267;69139;-60
2023/09/07 02:11:59;;;;;;;4.80;4.30;;;;;;;19.93;100.00;100338.52;104500;1255;72901;-59
2023/09/07 02:14:29;;;;;;;5.70;4.20;;;;;;;19.94;100.00;100340.39;104285;1254;61370;-59
2023/09/07 02:16:57;;;;;;;4.60;3.60;;;;;;;19.99;100.00;100338.65;104395;1266;59665;-59
2023/09/07 02:19:25;;;;;;;7.00;3.60;;;;;;;20.00;100.00;100340.89;104283;1275;72812;-60
2023/09/07 02:21:54;;;;;;;5.30;4.10;;;;;;;19.98;100.00;100341.88;104384;1275;68107;-59
2023/09/07 02:24:21;;;;;;;4.40;4.00;;;;;;;19.94;100.00;100343.42;104263;1270;73354;-59
2023/09/07 02:26:50;;;;;;;4.30;3.90;;;;;;;19.93;100.00;100346.17;104262;1253;61396;-58
2023/09/07 02:29:18;;;;;;;6.30;3.60;;;;;;;19.95;100.00;100343.23;104367;1259;59828;-59
2023/09/07 02:31:45;;;;;;;;;;;;;;;19.93;100.00;100347.58;104280;1256;73193;-59
2023/09/07 02:34:13;;;;;;;;;;;;;;;19.90;100.00;100352.23;104377;1257;69178;-60
2023/09/07 02:36:41;;;;;;;4.20;3.80;;;;;;;19.86;100.00;100351.84;104213;1257;73362;-59
2023/09/07 02:39:11;;;;;;;3.90;3.50;;;;;;;19.87;100.00;100347.50;104263;1257;61439;-60
2023/09/07 02:41:38;;;;;;;3.90;3.60;;;;;;;19.88;100.00;100351.88;104272;1256;60142;-59
2023/09/07 02:44:06;;;;;;;4.00;3.70;;;;;;;19.85;100.00;100348.89;104300;1257;72843;-61
2023/09/07 02:46:34;;;;;;;5.10;4.20;;;;;;;19.83;100.00;100346.30;104329;1274;68322;-61
2023/09/07 02:49:02;;;;;;;4.60;4.00;;;;;;;19.85;100.00;100347.05;104301;1257;73309;-60
2023/09/07 02:51:32;;;;;;;5.90;3.90;;;;;;;19.80;100.00;100346.02;104377;1254;61775;-60
2023/09/07 02:54:00;;;;;;;;;;;;;;;19.82;100.00;100350.15;108558;1251;59957;-60
2023/09/07 02:56:28;;;;;;;4.40;4.00;;;;;;;19.79;100.00;100351.36;107761;1254;73249;-60
2023/09/07 02:58:58;;;;;;;3.80;3.50;;;;;;;19.76;100.00;100351.60;104316;1275;69581;-60
2023/09/07 03:01:27;;;;;;;4.60;3.70;;;;;;;19.81;100.00;100351.60;104367;1274;72250;-59
2023/09/07 03:03:55;;;;;;;4.60;4.00;;;;;;;19.81;100.00;100356.98;104349;1266;61411;-60
2023/09/07 03:06:23;;;;;;;7.30;4.60;;;;;;;19.79;100.00;100360.11;104260;1260;59740;-61
2023/09/07 03:08:52;;;;;;;5.20;3.70;;;;;;;19.77;100.00;100361.13;104378;1256;72872;-60
2023/09/07 03:11:20;;;;;;;3.90;3.60;;;;;;;19.70;100.00;100359.10;104467;1256;70332;-62
2023/09/07 03:13:48;;;;;;;5.40;4.10;;;;;;;19.69;100.00;100362.05;104260;1255;72374;-61
2023/09/07 03:16:16;;;;;;;4.60;4.20;;;;;;;19.68;100.00;100363.56;104315;1252;60553;-60
2023/09/07 03:18:44;;;;;;;;;;;;;;;19.69;100.00;100365.79;104405;1253;59921;-61
2023/09/07 03:21:12;;;;;;;4.80;3.70;;;;;;;19.63;100.00;100374.73;104428;1257;73247;-62
2023/09/07 03:23:44;;;;;;;5.90;4.00;;;;;;;19.61;100.00;100377.52;104299;1254;69230;-61
2023/09/07 03:26:13;;;;;;;47.90;5.80;;;;;;;19.61;100.00;100382.54;104351;1254;72882;-61
2023/09/07 03:28:41;;;;;;;5.70;3.90;;;;;;;19.59;100.00;100380.18;104343;1257;60713;-59
2023/09/07 03:31:09;;;;;;;4.10;3.80;;;;;;;19.57;100.00;100384.06;104351;1257;61240;-57
2023/09/07 03:33:36;;;;;;;6.50;3.90;;;;;;;19.58;100.00;100386.11;104321;1253;74463;-59
2023/09/07 03:36:09;;;;;;;5.80;3.80;;;;;;;19.53;100.00;100388.25;104309;1254;69101;-59
2023/09/07 03:38:37;;;;;;;4.40;4.00;;;;;;;19.52;100.00;100393.48;104282;1276;72370;-59
2023/09/07 03:41:05;;;;;;;5.60;4.30;;;;;;;19.51;100.00;100394.58;104321;1256;61346;-59
2023/09/07 03:43:32;;;;;;;5.00;4.20;;;;;;;19.51;100.00;100394.77;104333;1256;60838;-60
2023/09/07 03:46:00;;;;;;;3.90;3.50;;;;;;;19.51;100.00;100396.17;104288;1276;73914;-59
2023/09/07 03:48:28;;;;;;;5.40;3.90;;;;;;;19.53;100.00;100398.73;104336;1256;68699;-60
2023/09/07 03:50:56;;;;;;;9.10;4.00;;;;;;;19.52;100.00;100406.61;104239;1274;72843;-59
2023/09/07 03:53:25;;;;;;;4.10;3.70;;;;;;;19.57;100.00;100410.73;106659;1253;61482;-59
2023/09/07 03:55:52;;;;;;;4.70;3.30;;;;;;;19.54;100.00;100412.89;104424;1257;59653;-60
2023/09/07 03:58:21;;;;;;;5.00;4.40;;;;;;;19.50;100.00;100416.52;104339;1254;74122;-60
2023/09/07 04:00:49;;;;;;;5.10;3.70;;;;;;;19.51;100.00;100420.16;104385;1264;69064;-60
2023/09/07 04:03:17;;;;;;;10.80;3.80;;;;;;;19.55;100.00;100428.27;104554;1257;72356;-61
2023/09/07 04:05:45;;;;;;;5.10;3.80;;;;;;;19.60;100.00;100429.89;104569;1252;60510;-59
2023/09/07 04:08:13;;;;;;;;;;;;;;;19.62;100.00;100433.67;104637;1257;60540;-59
2023/09/07 04:10:40;;;;;;;;;;;;;;;19.64;100.00;100440.26;104480;1251;73592;-61
2023/09/07 04:13:08;;;;;;;;;;;;;;;19.63;100.00;100444.40;104462;1269;67990;-60
2023/09/07 04:15:45;;;;;;;;;;;;;;;19.63;100.00;100447.48;104406;1257;72888;-59
2023/09/07 04:18:16;;;;;;;5.90;3.60;;;;;;;19.64;100.00;100445.25;104407;1257;61355;-59
2023/09/07 04:20:44;;;;;;;4.20;3.70;;;;;;;19.70;100.00;100444.00;104467;1255;60517;-61
2023/09/07 04:23:12;;;;;;;5.90;4.10;;;;;;;19.73;100.00;100446.64;104337;1254;74204;-59
2023/09/07 04:25:40;;;;;;;4.60;4.10;;;;;;;19.79;100.00;100449.23;104385;1256;69662;-59
2023/09/07 04:28:08;;;;;;;;;;;;;;;19.82;100.00;100448.30;104444;1269;72332;-60
2023/09/07 04:30:39;;;;;;;3.90;3.60;;;;;;;19.86;100.00;100446.83;104262;1258;61748;-59
2023/09/07 04:33:08;;;;;;;4.00;3.60;;;;;;;19.90;100.00;100453.13;104254;1257;60501;-60
2023/09/07 04:35:37;;;;;;;5.90;3.70;;;;;;;19.89;100.00;100452.27;104232;1275;73875;-60
2023/09/07 04:38:06;;;;;;;7.00;3.80;;;;;;;19.96;100.00;100458.23;104272;1270;69583;-60
2023/09/07 04:40:34;;;;;;;6.60;3.40;;;;;;;19.98;100.00;100457.87;104344;1267;72876;-61
2023/09/07 04:43:02;;;;;;;5.00;3.30;;;;;;;19.99;100.00;100458.36;104410;1251;61478;-60
2023/09/07 04:45:32;;;;;;;4.70;3.90;;;;;;;20.05;100.00;100462.61;104280;1257;59676;-60
2023/09/07 04:48:00;;;;;;;;;;;;;;;20.16;100.00;100465.00;104286;1256;73604;-59
2023/09/07 04:50:30;;;;;;;4.90;3.50;;;;;;;20.22;100.00;100464.06;104310;1275;69697;-59
2023/09/07 04:52:57;;;;;;;4.10;3.50;;;;;;;20.21;100.00;100462.55;104418;1258;71470;-60
2023/09/07 04:55:25;;;;;;;4.30;3.50;;;;;;;20.22;100.00;100463.35;108347;1252;61520;-60
2023/09/07 04:57:54;;;;;;;3.70;3.20;;;;;;;20.28;100.00;100464.73;105387;1257;60508;-59
2023/09/07 05:00:22;;;;;;;6.40;3.50;;;;;;;20.29;100.00;100465.39;104697;1257;72609;-60
2023/09/07 05:02:49;;;;;;;8.30;4.00;;;;;;;20.38;100.00;100463.65;104810;1257;69182;-62
2023/09/07 05:05:17;;;;;;;5.30;4.00;;;;;;;20.43;100.00;100469.52;105025;1254;72863;-60
2023/09/07 05:07:45;;;;;;;5.50;3.50;;;;;;;20.45;100.00;100472.08;104701;1254;61879;-60
2023/09/07 05:10:13;;;;;;;5.20;4.00;;;;;;;20.45;100.00;100467.80;104356;1254;60597;-60
2023/09/07 05:12:41;;;;;;;5.20;3.60;;;;;;;20.49;100.00;100467.89;104442;1254;74012;-60
2023/09/07 05:15:09;;;;;;;;;;;;;;;20.57;100.00;100470.55;104356;1273;70449;-60
2023/09/07 05:17:38;;;;;;;5.80;4.00;;;;;;;20.58;100.00;100474.19;104278;1275;72429;-60
2023/09/07 05:20:07;;;;;;;6.20;3.90;;;;;;;20.59;100.00;100474.46;104310;1254;61402;-60
2023/09/07 05:22:39;;;;;;;5.80;3.70;;;;;;;20.67;100.00;100474.15;104399;1254;60495;-62
2023/09/07 05:25:08;;;;;;;4.50;3.70;;;;;;;20.74;100.00;100477.14;104275;1259;72845;-61
2023/09/07 05:27:36;;;;;;;5.40;3.60;;;;;;;20.82;100.00;100475.20;104299;1275;69386;-61
2023/09/07 05:30:04;;;;;;;;;;;;;;;20.88;100.00;100475.96;104329;1259;72454;-61
2023/09/07 05:32:32;;;;;;;6.40;3.40;;;;;;;20.92;100.00;100475.48;104279;1254;61602;-63
2023/09/07 05:35:00;;;;;;;5.20;3.70;;;;;;;20.95;100.00;100473.17;104323;1260;60539;-61
2023/09/07 05:37:31;;;;;;;3.90;3.50;;;;;;;21.01;100.00;100474.49;104330;1276;73541;-62
2023/09/07 05:39:58;;;;;;;;;;;;;;;21.01;100.00;100462.56;104340;1260;69167;-61
2023/09/07 05:42:27;;;;;;;7.30;3.30;;;;;;;21.18;100.00;100473.20;104205;1254;72528;-62
2023/09/07 05:44:56;;;;;;;5.60;3.80;;;;;;;21.26;100.00;100476.61;104226;1254;61465;-61
2023/09/07 05:47:26;;;;;;;5.00;3.50;;;;;;;21.28;100.00;100472.70;104327;1257;60521;-60
2023/09/07 05:49:54;;;;;;;8.10;3.50;;;;;;;21.33;100.00;100476.20;104237;1267;72758;-61
2023/09/07 05:52:22;;;;;;;5.20;3.20;;;;;;;21.36;100.00;100475.06;104294;1254;68736;-60
2023/09/07 05:54:50;;;;;;;7.20;3.20;;;;;;;21.38;100.00;100477.10;104362;1254;72338;-60
2023/09/07 05:57:18;;;;;;;;;;;;;;;21.43;100.00;100480.34;104284;1257;61447;-60
2023/09/07 05:59:48;;;;;;;5.90;3.00;;;;;;;21.49;100.00;100478.11;104320;1254;60641;-61
2023/09/07 06:02:15;;;;;;;4.10;2.90;;;;;;;21.53;100.00;100485.83;104227;1262;73094;-60
2023/09/07 06:04:43;;;;;;;4.80;3.00;;;;;;;21.60;100.00;100487.62;104267;1256;69630;-60
2023/09/07 06:07:11;;;;;;;4.60;3.30;;;;;;;21.68;100.00;100489.84;104250;1260;72426;-60
2023/09/07 06:09:39;;;;;;;7.10;3.30;;;;;;;21.74;100.00;100488.38;104259;1256;61398;-61
2023/09/07 06:12:07;;;;;;;3.50;2.70;;;;;;;21.79;100.00;100492.07;104238;1270;60584;-61
2023/09/07 06:14:35;;;;;;;3.80;3.10;;;;;;;21.86;100.00;100495.43;104290;1259;73848;-61
2023/09/07 06:17:03;;;;;;;4.20;2.80;;;;;;;21.93;100.00;100494.41;104292;1259;69653;-61
2023/09/07 06:19:31;;;;;;;4.60;2.70;;;;;;;21.97;100.00;100491.40;104236;1277;72341;-61
2023/09/07 06:21:59;;;;;;;;;;;;;;;22.02;100.00;100498.69;104280;1260;61418;-62
2023/09/07 06:24:27;;;;;;;5.90;2.90;;;;;;;22.10;100.00;100498.10;104245;1273;59803;-61
2023/09/07 06:26:56;;;;;;;3.50;3.20;;;;;;;22.16;100.00;100501.34;104341;1254;73694;-61
2023/09/07 06:29:23;;;;;;;4.60;3.40;;;;;;;22.23;100.00;100503.66;104302;1260;68545;-61
2023/09/07 06:31:52;;;;;;;3.60;3.10;;;;;;;22.28;100.00;100502.59;104352;1259;72319;-61
2023/09/07 06:34:21;;;;;;;5.90;3.30;;;;;;;22.34;100.00;100504.11;104282;1255;61483;-62
2023/09/07 06:36:48;;;;;;;;;;;;;;;22.41;100.00;100506.98;104258;1259;60549;-60
2023/09/07 06:39:19;;;;;;;4.90;3.10;;;;;;;22.47;100.00;100511.63;104264;1257;73970;-60
2023/09/07 06:41:48;;;;;;;8.80;2.70;;;;;;;22.51;100.00;100515.21;104267;1254;69103;-60
2023/09/07 06:44:17;;;;;;;5.00;2.80;;;;;;;22.57;100.00;100517.64;104217;1276;71704;-61
2023/09/07 06:46:46;;;;;;;3.80;3.00;;;;;;;22.64;100.00;100519.45;104303;1255;61388;-60
2023/09/07 06:49:13;;;;;;;;;;;;;;;22.72;100.00;100521.81;104313;1254;60623;-60
2023/09/07 06:51:41;;;;;;;8.00;2.70;;;;;;;22.81;100.00;100523.95;104318;1254;74047;-60
2023/09/07 06:54:09;;;;;;;;;;;;;;;22.87;100.00;100522.41;104324;1254;70373;-60
2023/09/07 06:56:37;;;;;;;11.80;3.40;;;;;;;22.97;100.00;100525.94;105928;1256;72903;-60
2023/09/07 06:59:05;;;;;;;10.40;3.20;;;;;;;23.07;99.72;100529.27;104278;1260;61372;-60
2023/09/07 07:01:33;;;;;;;4.90;2.90;;;;;;;23.14;99.82;100528.67;104250;1260;59705;-60
2023/09/07 07:04:01;;;;;;;3.30;2.90;;;;;;;23.21;98.63;100527.98;104281;1255;73695;-60
2023/09/07 07:06:29;;;;;;;3.40;2.30;;;;;;;23.27;96.80;100524.02;104269;1260;69239;-60
2023/09/07 07:08:57;;;;;;;9.30;2.70;;;;;;;23.38;94.59;100525.68;104254;1254;72338;-60
2023/09/07 07:11:25;;;;;;;7.00;2.70;;;;;;;23.48;92.44;100520.84;104253;1259;60954;-60
2023/09/07 07:13:52;;;;;;;5.30;2.60;;;;;;;23.55;87.86;100519.70;104276;1257;60533;-60
2023/09/07 07:16:21;;;;;;;6.40;2.60;;;;;;;23.62;86.39;100524.93;104280;1260;73987;-60
2023/09/07 07:18:50;;;;;;;4.10;2.70;;;;;;;23.66;84.41;100522.39;104260;1259;69358;-60
2023/09/07 11:34:51;;;;;;;2.30;1.30;;;;;;;27.82;32.67;100518.12;101509;1290;600825;-60
2023/09/07 11:37:24;;;;;;;2.80;1.40;;;;;;;28.25;31.92;100519.23;103905;1269;59758;-59
2023/09/07 11:39:52;;;;;;;1.20;1.10;;;;;;;28.20;31.01;100515.75;103899;1264;60338;-59
2023/09/07 11:42:20;;;;;;;1.80;1.30;;;;;;;28.21;30.38;100515.71;103913;1264;72041;-60
2023/09/07 11:44:48;;;;;;;1.40;1.20;;;;;;;28.23;30.95;100516.94;103854;1268;69722;-60
2023/09/07 11:47:16;;;;;;;1.10;1.00;;;;;;;28.27;30.46;100509.83;103629;1270;334502;-60
2023/09/07 11:49:43;;;;;;;1.30;1.20;;;;;;;28.39;30.65;100502.13;103959;1280;60285;-59
2023/09/07 11:52:11;;;;;;;;;;;;;;;28.41;29.88;100505.39;103947;1266;60718;-59
2023/09/07 11:54:39;;;;;;;2.40;1.10;;;;;;;28.40;29.83;100505.65;103924;1274;72082;-59
2023/09/07 11:57:07;;;;;;;2.80;1.10;;;;;;;28.39;30.03;100502.29;103866;1267;70116;-60
2023/09/07 11:59:35;;;;;;;3.60;1.10;;;;;;;28.38;29.81;100504.21;103740;1264;72354;-60
2023/09/07 12:02:22;;;;;;;4.30;1.40;;;;;;;28.37;29.82;100502.80;103864;1265;59899;-60
2023/09/07 12:04:50;;;;;;;;;;;;;;;28.37;30.25;100504.46;103896;1276;59688;-59
2023/09/07 12:07:18;;;;;;;4.90;1.40;;;;;;;28.31;30.00;100501.06;103900;1264;72797;-60
2023/09/07 12:09:46;;;;;;;2.00;1.30;;;;;;;28.34;30.22;100497.37;103925;1285;69100;-60
2023/09/07 12:12:14;;;;;;;2.90;1.40;;;;;;;28.37;30.38;100501.24;103917;1264;72987;-60
2023/09/07 12:14:42;;;;;;;3.20;1.50;;;;;;;28.50;29.87;100499.83;104285;1257;59903;-59
2023/09/07 12:17:10;;;;;;;6.90;1.20;;;;;;;28.54;29.81;100494.30;104263;1260;59944;-59
2023/09/07 12:19:41;;;;;;;6.40;1.50;;;;;;;28.57;30.28;100487.30;104285;1260;73213;-59
2023/09/07 12:22:09;;;;;;;3.80;1.70;;;;;;;28.57;29.49;100488.17;104285;1260;69024;-60
2023/09/07 12:24:37;;;;;;;;;;;;;;;28.57;29.11;100484.34;104311;1260;72448;-60
2023/09/07 12:27:05;;;;;;;6.50;1.60;;;;;;;28.54;29.43;100485.73;104284;1260;60738;-59
2023/09/07 12:29:35;;;;;;;6.10;1.70;;;;;;;28.53;29.55;100482.65;104277;1254;59765;-60
2023/09/07 12:32:03;;;;;;;1.70;1.10;;;;;;;28.59;29.50;100484.40;104248;1277;72834;-59
2023/09/07 12:34:31;;;;;;;2.70;1.30;;;;;;;28.66;29.56;100482.28;104324;1277;69473;-60
2023/09/07 12:36:59;;;;;;;5.30;1.20;;;;;;;28.74;29.96;100484.54;104293;1259;73374;-60
2023/09/07 12:39:27;;;;;;;;;;;;;;;28.83;29.26;100483.41;104254;1268;60184;-61
2023/09/07 12:41:55;;;;;;;5.30;1.30;;;;;;;28.87;28.88;100478.69;104243;1257;59746;-59
2023/09/07 12:44:23;;;;;;;;;;;;;;;28.84;27.90;100475.58;104343;1255;73215;-59
2023/09/07 12:46:50;;;;;;;3.30;1.10;;;;;;;28.82;28.36;100481.38;104273;1260;69942;-59
2023/09/07 12:49:18;;;;;;;;;;;;;;;28.87;28.49;100476.48;104282;1260;72359;-58
2023/09/07 12:51:47;;;;;;;2.90;1.30;;;;;;;28.91;28.22;100471.94;104303;1257;59844;-59
2023/09/07 12:54:15;;;;;;;2.70;1.60;;;;;;;28.95;28.75;100467.89;104278;1260;60668;-59
2023/09/07 12:56:44;;;;;;;2.80;1.50;;;;;;;28.95;27.99;100468.27;104288;1255;73155;-61
2023/09/07 12:59:11;;;;;;;2.10;1.60;;;;;;;28.95;28.18;100464.95;104305;1266;69090;-61
2023/09/07 13:01:39;;;;;;;3.10;1.30;;;;;;;29.07;28.65;100463.36;104300;1260;72922;-61
2023/09/07 13:04:07;;;;;;;;;;;;;;;29.14;27.78;100468.43;104324;1254;60924;-61
2023/09/07 13:06:35;;;;;;;5.20;1.70;;;;;;;29.06;27.54;100466.39;104310;1260;60073;-61
2023/09/07 13:09:04;;;;;;;;;;;;;;;29.06;28.38;100463.96;104309;1259;72680;-59
2023/09/07 13:11:33;;;;;;;2.20;1.20;;;;;;;29.18;28.07;100463.81;104333;1278;69542;-60
2023/09/07 13:14:00;;;;;;;6.00;1.50;;;;;;;29.33;27.78;100467.42;104256;1276;72327;-60
2023/09/07 13:16:38;;;;;;;2.20;1.30;;;;;;;29.49;27.56;100467.26;104230;1278;59987;-60
2023/09/07 13:19:06;;;;;;;;;;;;;;;29.61;27.47;100467.02;104216;1260;59627;-60
2023/09/07 13:21:34;;;;;;;2.80;1.10;;;;;;;29.70;27.31;100457.55;104228;1260;72262;-60
2023/09/07 13:24:01;;;;;;;;;;;;;;;29.86;27.04;100468.45;104305;1260;69997;-60
2023/09/07 13:26:29;;;;;;;1.40;0.90;;;;;;;30.00;26.52;100466.19;104257;1259;72267;-60
2023/09/07 13:28:58;;;;;;;3.60;1.30;;;;;;;30.04;26.51;100470.63;104236;1269;60145;-60
2023/09/07 13:31:26;;;;;;;3.00;1.40;;;;;;;30.12;26.66;100470.13;104313;1260;59746;-60
2023/09/07 13:33:54;;;;;;;5.60;1.10;;;;;;;30.13;26.14;100466.91;104244;1278;72839;-60
2023/09/07 13:36:22;;;;;;;1.20;1.10;;;;;;;30.13;25.60;100468.20;104249;1258;69519;-60
2023/09/07 13:38:50;;;;;;;5.00;1.20;;;;;;;30.20;25.96;100467.91;104280;1259;73309;-60
2023/09/07 13:41:19;;;;;;;3.20;1.10;;;;;;;30.34;25.60;100468.16;104268;1257;59850;-60
2023/09/07 13:43:47;;;;;;;6.60;1.40;;;;;;;30.52;25.28;100463.19;104329;1255;60105;-60
2023/09/07 13:46:15;;;;;;;6.90;1.50;;;;;;;30.72;25.65;100466.56;104324;1262;73703;-60
2023/09/07 13:48:45;;;;;;;4.10;1.20;;;;;;;30.82;24.95;100463.92;104284;1255;69097;-60
2023/09/07 13:51:12;;;;;;;4.90;1.20;;;;;;;31.01;24.58;100465.07;104324;1260;71227;-61
2023/09/07 13:53:40;;;;;;;;;;;;;;;31.27;24.04;100459.47;106171;1256;62844;-61
2023/09/07 13:56:08;;;;;;;3.10;1.30;;;;;;;31.44;24.32;100458.50;104321;1260;59854;-61
2023/09/07 13:58:36;;;;;;;2.70;1.10;;;;;;;31.55;24.16;100456.60;104033;1255;72844;-60
2023/09/07 14:01:03;;;;;;;3.10;1.30;;;;;;;31.67;24.26;100455.98;106205;1255;69312;-61
2023/09/07 14:03:32;;;;;;;2.30;1.10;;;;;;;31.76;24.48;100452.02;104235;1276;72442;-60
2023/09/07 14:06:00;;;;;;;3.90;1.20;;;;;;;31.73;24.02;100450.80;104281;1258;59913;-60
2023/09/07 14:08:30;;;;;;;4.00;1.20;;;;;;;31.72;24.17;100455.01;104292;1259;62246;-61
2023/09/07 14:10:58;;;;;;;6.50;1.80;;;;;;;31.87;23.27;100450.35;104280;1261;72882;-60
2023/09/07 14:13:27;;;;;;;1.70;1.30;;;;;;;31.99;23.04;100446.86;104275;1260;69709;-59
2023/09/07 14:15:55;;;;;;;;;;;;;;;31.95;22.99;100450.64;104309;1259;72828;-60
2023/09/07 14:18:23;;;;;;;3.60;0.90;;;;;;;32.04;22.73;100450.00;104344;1262;59804;-60
2023/09/07 14:20:52;;;;;;;2.90;1.20;;;;;;;32.06;22.71;100443.30;104254;1255;59742;-60
2023/09/07 14:23:20;;;;;;;5.40;1.10;;;;;;;32.01;22.58;100446.17;104219;1260;73197;-60
2023/09/07 14:25:48;;;;;;;2.00;1.00;;;;;;;32.00;22.69;100447.67;104283;1260;69497;-60
2023/09/07 14:28:16;;;;;;;;;;;;;;;32.04;22.81;100444.40;104253;1260;72430;-61
2023/09/07 14:30:44;;;;;;;1.40;0.90;;;;;;;32.07;22.47;100442.50;104243;1255;62947;-59
2023/09/07 14:33:12;;;;;;;2.60;1.20;;;;;;;32.13;22.50;100441.56;104289;1260;60147;-60
2023/09/07 14:35:39;;;;;;;;;;;;;;;32.15;22.22;100439.24;104279;1260;72801;-60
2023/09/07 14:38:07;;;;;;;5.80;1.50;;;;;;;32.07;22.16;100441.84;104309;1260;68058;-60
2023/09/07 14:40:35;;;;;;;2.90;1.10;;;;;;;32.04;22.21;100440.22;104203;1277;72427;-61
2023/09/07 14:43:04;;;;;;;5.20;1.30;;;;;;;31.97;22.45;100439.92;104263;1256;60000;-60
2023/09/07 14:45:31;;;;;;;2.10;1.20;;;;;;;31.84;22.92;100436.92;104355;1259;59781;-60
2023/09/07 14:48:01;;;;;;;2.50;1.20;;;;;;;31.70;23.28;100439.34;104226;1257;73000;-60
2023/09/07 14:50:29;;;;;;;1.30;1.10;;;;;;;31.55;23.24;100433.57;104293;1260;68879;-60
2023/09/07 14:52:57;;;;;;;1.10;1.00;;;;;;;31.43;22.89;100436.02;104353;1260;73250;-60
2023/09/07 14:55:24;;;;;;;2.60;1.10;;;;;;;31.32;22.84;100436.04;104407;1257;59835;-60
2023/09/07 14:57:52;;;;;;;;;;;;;;;31.26;22.93;100442.52;104346;1260;59829;-60
2023/09/07 15:00:22;;;;;;;3.90;1.20;;;;;;;31.17;22.92;100442.32;104382;1271;73264;-60
2023/09/07 15:02:50;;;;;;;1.20;1.00;;;;;;;31.03;23.00;100445.99;104277;1257;69223;-60
2023/09/07 15:05:17;;;;;;;1.40;1.10;;;;;;;30.75;23.43;100447.41;104312;1277;72418;-60
2023/09/07 15:07:45;;;;;;;2.40;1.10;;;;;;;30.57;23.62;100443.84;104292;1260;60708;-62
2023/09/07 15:10:13;;;;;;;;;;;;;;;30.38;24.13;100442.25;104403;1273;59787;-59
2023/09/07 15:12:41;;;;;;;2.00;1.00;;;;;;;30.10;24.43;100446.61;104288;1276;72836;-60
2023/09/07 15:15:09;;;;;;;1.90;1.40;;;;;;;29.74;25.29;100446.52;104437;1255;70051;-60
2023/09/07 15:17:46;;;;;;;1.30;1.20;;;;;;;29.47;25.59;100447.66;104325;1273;73187;-60
2023/09/07 15:20:14;;;;;;;3.50;1.10;;;;;;;29.20;26.00;100448.77;104309;1256;59895;-60
2023/09/07 15:22:42;;;;;;;1.80;1.10;;;;;;;28.97;26.20;100449.11;104395;1257;60376;-60
2023/09/07 15:25:10;;;;;;;2.30;1.40;;;;;;;28.79;25.77;100451.20;104306;1258;71874;-60
2023/09/07 15:27:37;;;;;;;;;;;;;;;28.64;26.05;100455.45;104303;1257;68527;-60
2023/09/07 15:30:06;;;;;;;1.70;1.10;;;;;;;28.47;26.28;100456.70;104364;1272;72739;-60
2023/09/07 15:32:34;;;;;;;2.80;1.30;;;;;;;28.31;26.74;100457.33;104367;1257;60759;-60
2023/09/07 15:35:02;;;;;;;2.10;1.30;;;;;;;28.09;27.65;100458.16;104379;1273;60043;-60
2023/09/07 15:37:29;;;;;;;2.90;1.10;;;;;;;27.84;27.81;100461.49;104343;1274;73399;-59
2023/09/07 15:39:57;;;;;;;1.80;1.10;;;;;;;27.61;28.25;100463.27;104338;1257;69613;-59